PIA weather

General Wayne A. Downing Peoria International Airport
Peoria, Illinois, United States

Public forecast

Using degrees Fahrenheit for public forecast. Weather courtesy of forecast.io.

METAR (pilot weather report)

Retrieved 2019/05/22 13:54 UTC (50 minutes ago):

KPIA 221354Z 16013G21KT 10SM CLR 18/14 A2980 RMK AO2 SLP090 T01830144

TAF (pilot weather forecast)

Retrieved 2019/05/22 12:22 UTC (2 hours ago):

TAF KPIA 221120Z 2212/2312 17011KT P6SM FEW010 SCT250 FM221400 19015G22KT P6SM FEW250 FM230100 18013KT P6SM BKN250 FM230600 20013KT P6SM VCTS SCT025CB BKN060 WS020/22045KT TEMPO 2307/2309 2SM -TSRA OVC025CB FM230900 24008KT P6SM SCT030 BKN080